createdAt,value
2023-05-01T00:03:20.206Z,1.48
2023-05-01T00:05:47.708Z,1.50
2023-05-01T00:08:14.726Z,1.20
2023-05-01T00:10:41.665Z,1.33
2023-05-01T00:13:09.890Z,1.30
2023-05-01T00:15:36.974Z,1.50
2023-05-01T00:18:04.010Z,1.52
2023-05-01T00:20:31.212Z,1.60
2023-05-01T00:22:58.180Z,1.27
2023-05-01T00:25:25.152Z,1.15
2023-05-01T00:27:52.013Z,1.17
2023-05-01T00:30:18.955Z,1.20
2023-05-01T00:32:45.946Z,1.10
2023-05-01T00:37:40.625Z,1.10
2023-05-01T00:40:08.467Z,1.33
2023-05-01T00:42:37.276Z,1.30
2023-05-01T00:45:04.587Z,1.20
2023-05-01T00:49:59.484Z,1.67
2023-05-01T00:52:26.682Z,1.77
2023-05-01T00:54:54.355Z,1.52
2023-05-01T00:57:24.165Z,1.80
2023-05-01T00:59:51.113Z,1.20
2023-05-01T01:02:18.006Z,1.67
2023-05-01T01:04:47.271Z,1.25
2023-05-01T01:07:27.445Z,1.40
2023-05-01T01:10:00.551Z,1.80
2023-05-01T01:12:50.082Z,1.25
2023-05-01T01:15:31.651Z,1.20
2023-05-01T01:17:58.618Z,1.25
2023-05-01T01:20:38.000Z,1.42
2023-05-01T01:23:30.635Z,1.92
2023-05-01T01:26:55.884Z,1.52
2023-05-01T01:29:49.717Z,1.80
2023-05-01T01:32:53.688Z,2.00
2023-05-01T01:35:24.348Z,1.50
2023-05-01T01:38:15.285Z,1.90
2023-05-01T01:40:59.915Z,1.40
2023-05-01T01:43:33.118Z,1.50
2023-05-01T01:46:05.525Z,1.60
2023-05-01T01:48:36.233Z,1.88
2023-05-01T01:51:08.346Z,1.65
2023-05-01T01:53:37.765Z,1.48
2023-05-01T01:56:07.780Z,2.20
2023-05-01T01:58:38.876Z,2.30
2023-05-01T02:01:06.786Z,1.90
2023-05-01T02:03:34.339Z,2.17
2023-05-01T02:06:04.328Z,2.20
2023-05-01T02:08:34.341Z,2.30
2023-05-01T02:11:02.801Z,3.00
2023-05-01T02:13:31.374Z,2.85
2023-05-01T02:16:02.949Z,2.50
2023-05-01T02:18:31.780Z,2.42
2023-05-01T02:21:00.492Z,2.50
2023-05-01T02:23:32.122Z,3.15
2023-05-01T02:26:03.051Z,2.60
2023-05-01T02:28:30.818Z,2.72
2023-05-01T02:30:58.640Z,2.55
2023-05-01T02:33:25.899Z,2.80
2023-05-01T02:38:19.742Z,3.10
2023-05-01T02:40:58.509Z,2.67
2023-05-01T02:43:27.841Z,2.47
2023-05-01T02:45:55.774Z,2.65
2023-05-01T02:48:27.671Z,2.75
2023-05-01T02:50:55.988Z,2.55
2023-05-01T02:53:23.916Z,2.72
2023-05-01T02:55:51.063Z,2.60
2023-05-01T02:58:18.942Z,2.65
2023-05-01T03:00:47.317Z,2.72
2023-05-01T03:03:32.866Z,2.92
2023-05-01T03:06:00.187Z,2.75
2023-05-01T03:10:53.969Z,2.72
2023-05-01T03:13:21.939Z,2.83
2023-05-01T03:15:48.904Z,3.15
2023-05-01T03:18:16.010Z,3.00
2023-05-01T03:20:52.918Z,3.03
2023-05-01T03:23:19.985Z,3.17
2023-05-01T03:25:47.078Z,3.17
2023-05-01T03:28:14.344Z,2.60
2023-05-01T03:33:08.193Z,2.65
2023-05-01T03:35:35.197Z,2.60
2023-05-01T03:38:02.210Z,2.63
2023-05-01T03:40:29.182Z,2.35
2023-05-01T03:42:56.167Z,3.03
2023-05-01T03:45:23.187Z,3.28
2023-05-01T03:47:50.346Z,3.15
2023-05-01T03:50:17.464Z,2.60
2023-05-01T03:52:44.434Z,2.70
2023-05-01T03:55:11.890Z,3.05
2023-05-01T03:57:38.899Z,2.83
2023-05-01T04:00:07.314Z,3.42
2023-05-01T04:02:34.274Z,2.75
2023-05-01T04:05:01.362Z,2.75
2023-05-01T04:07:28.376Z,2.92
2023-05-01T04:09:55.440Z,2.75
2023-05-01T04:12:22.573Z,3.08
2023-05-01T04:14:49.482Z,2.78
2023-05-01T04:17:16.500Z,3.40
2023-05-01T04:19:43.379Z,3.15
2023-05-01T04:22:10.274Z,3.40
2023-05-01T04:24:37.265Z,3.33
2023-05-01T04:27:05.860Z,3.08
2023-05-01T04:29:32.768Z,3.33
2023-05-01T04:31:59.656Z,3.15
2023-05-01T04:34:29.393Z,3.45
2023-05-01T04:36:57.381Z,3.05
2023-05-01T04:39:26.628Z,3.40
2023-05-01T04:41:59.480Z,2.70
2023-05-01T04:44:26.416Z,3.58
2023-05-01T04:46:53.318Z,3.20
2023-05-01T04:49:21.942Z,3.10
2023-05-01T04:51:48.866Z,3.40
2023-05-01T04:54:15.737Z,3.20
2023-05-01T04:56:42.650Z,3.95
2023-05-01T04:59:09.619Z,3.20
2023-05-01T05:01:36.526Z,3.70
2023-05-01T05:04:03.714Z,3.25
2023-05-01T05:06:31.514Z,3.20
2023-05-01T05:08:58.709Z,2.95
2023-05-01T05:11:26.594Z,3.30
2023-05-01T05:13:53.487Z,3.33
2023-05-01T05:16:20.561Z,3.42
2023-05-01T05:18:47.548Z,3.78
2023-05-01T05:21:14.465Z,3.70
2023-05-01T05:23:41.408Z,3.75
2023-05-01T05:26:08.370Z,3.63
2023-05-01T05:28:35.432Z,3.20
2023-05-01T05:31:02.373Z,3.50
2023-05-01T05:33:29.275Z,3.22
2023-05-01T05:35:58.155Z,3.30
2023-05-01T05:38:25.051Z,3.50
2023-05-01T05:40:53.698Z,3.38
2023-05-01T05:43:20.718Z,3.50
2023-05-01T05:45:47.684Z,3.10
2023-05-01T05:48:14.796Z,3.20
2023-05-01T05:50:41.889Z,3.22
2023-05-01T05:53:10.022Z,3.22
2023-05-01T05:55:37.019Z,2.80
2023-05-01T05:58:03.919Z,3.40
2023-05-01T06:00:30.968Z,2.63
2023-05-01T06:02:58.226Z,2.90
2023-05-01T06:07:52.147Z,2.80
2023-05-01T06:10:19.415Z,2.83
2023-05-01T06:12:49.532Z,2.70
2023-05-01T06:15:24.974Z,2.88
2023-05-01T06:17:51.962Z,2.75
2023-05-01T06:20:19.047Z,3.10
2023-05-01T06:22:46.899Z,2.90
2023-05-01T06:25:13.993Z,3.10
2023-05-01T06:27:40.890Z,2.88
2023-05-01T06:30:09.428Z,3.25
2023-05-01T06:32:36.599Z,2.88
2023-05-01T06:35:03.734Z,2.42
2023-05-01T06:37:31.865Z,2.60
2023-05-01T06:39:58.952Z,3.42
2023-05-01T06:44:52.920Z,3.50
2023-05-01T06:47:19.974Z,2.90
2023-05-01T06:49:46.911Z,3.00
2023-05-01T06:52:13.950Z,3.17
2023-05-01T06:54:41.442Z,3.10
2023-05-01T06:57:08.323Z,2.97
2023-05-01T06:59:35.248Z,2.78
2023-05-01T07:02:02.231Z,3.42
2023-05-01T07:04:29.143Z,3.65
2023-05-01T07:06:56.081Z,3.28
2023-05-01T07:09:22.971Z,2.92
2023-05-01T07:11:49.942Z,3.78
2023-05-01T07:14:17.316Z,3.50
2023-05-01T07:16:44.289Z,3.03
2023-05-01T07:19:13.352Z,3.70
2023-05-01T07:21:41.467Z,3.90
2023-05-01T07:24:08.448Z,3.42
2023-05-01T07:26:35.347Z,3.22
2023-05-01T07:29:02.299Z,3.15
2023-05-01T07:31:29.210Z,2.88
2023-05-01T07:33:56.251Z,2.47
2023-05-01T07:36:24.117Z,2.55
2023-05-01T07:38:51.039Z,2.00
2023-05-01T07:41:17.954Z,2.10
2023-05-01T07:43:44.876Z,1.70
2023-05-01T07:46:12.892Z,1.60
2023-05-01T07:48:40.068Z,1.73
2023-05-01T07:51:07.144Z,1.73
2023-05-01T07:53:34.339Z,1.70
2023-05-01T07:56:09.102Z,1.50
2023-05-01T07:58:37.256Z,1.90
2023-05-01T08:01:05.648Z,2.10
2023-05-01T08:03:32.989Z,1.70
2023-05-01T08:06:00.159Z,1.77
2023-05-01T08:08:27.304Z,1.60
2023-05-01T08:10:54.870Z,1.55
2023-05-01T08:13:21.871Z,1.52
2023-05-01T08:15:49.520Z,1.80
2023-05-01T08:18:20.643Z,1.50
2023-05-01T08:20:48.736Z,1.70
2023-05-01T08:23:16.957Z,1.60
2023-05-01T08:25:56.317Z,1.60
2023-05-01T08:28:23.614Z,1.75
2023-05-01T08:30:50.680Z,1.60
2023-05-01T08:33:17.860Z,1.83
2023-05-01T08:35:44.758Z,1.33
2023-05-01T08:41:06.799Z,1.48
2023-05-01T08:43:33.898Z,1.30
2023-05-01T08:46:01.919Z,1.30
2023-05-01T08:48:30.273Z,1.30
2023-05-01T08:50:59.632Z,1.20
2023-05-01T08:53:27.343Z,1.60
2023-05-01T08:55:58.875Z,1.40
2023-05-01T08:58:27.846Z,1.40
2023-05-01T09:00:58.334Z,1.50
2023-05-01T09:03:27.178Z,1.20
2023-05-01T09:05:54.747Z,1.30
2023-05-01T09:08:21.764Z,1.50
2023-05-01T09:10:49.545Z,1.52
2023-05-01T09:13:16.617Z,1.45
2023-05-01T09:15:44.630Z,1.60
2023-05-01T09:18:12.934Z,1.42
2023-05-01T09:20:40.958Z,1.85
2023-05-01T09:23:07.859Z,1.50
2023-05-01T09:28:02.081Z,1.25
2023-05-01T09:30:31.901Z,1.20
2023-05-01T09:33:12.841Z,1.30
2023-05-01T09:35:54.162Z,1.23
2023-05-01T09:38:25.597Z,1.60
2023-05-01T09:40:56.788Z,1.73
2023-05-01T09:43:27.785Z,1.10
2023-05-01T09:46:07.393Z,1.42
2023-05-01T09:48:35.989Z,1.65
2023-05-01T09:51:25.340Z,1.50
2023-05-01T09:53:52.631Z,1.50
2023-05-01T09:56:21.734Z,1.42
2023-05-01T09:58:51.219Z,1.55
2023-05-01T10:01:18.537Z,1.50
2023-05-01T10:03:46.373Z,1.25
2023-05-01T10:06:28.023Z,1.40
2023-05-01T10:08:55.100Z,0.93
2023-05-01T10:11:34.636Z,1.48
2023-05-01T10:14:10.055Z,1.20
2023-05-01T10:16:38.735Z,1.02
2023-05-01T10:19:06.477Z,0.95
2023-05-01T10:21:44.309Z,1.20
2023-05-01T10:24:11.410Z,0.95
2023-05-01T10:26:38.445Z,1.08
2023-05-01T10:29:05.388Z,1.55
2023-05-01T10:31:33.277Z,1.58
2023-05-01T10:34:02.201Z,1.90
2023-05-01T10:36:43.777Z,1.58
2023-05-01T10:39:36.671Z,1.52
2023-05-01T10:42:14.919Z,1.25
2023-05-01T10:44:42.852Z,1.15
2023-05-01T10:47:25.472Z,1.00
2023-05-01T10:50:12.096Z,1.40
2023-05-01T10:53:09.981Z,1.15
2023-05-01T10:55:38.272Z,1.50
2023-05-01T10:58:05.456Z,1.20
2023-05-01T11:00:34.314Z,1.30
2023-05-01T11:03:24.108Z,1.38
2023-05-01T11:06:00.797Z,1.33
2023-05-01T11:08:32.465Z,1.40
2023-05-01T11:11:28.137Z,1.58
2023-05-01T11:14:09.474Z,1.50
2023-05-01T11:16:42.336Z,1.77
2023-05-01T11:21:42.248Z,1.48
2023-05-01T11:24:12.651Z,1.20
2023-05-01T11:26:41.856Z,0.90
2023-05-01T11:29:10.923Z,0.93
2023-05-01T11:31:39.161Z,1.30
2023-05-01T11:34:11.043Z,1.05
2023-05-01T11:36:57.623Z,14.85
2023-05-01T11:39:25.632Z,3.80
2023-05-01T11:42:07.298Z,1.83
2023-05-01T11:44:34.755Z,4.90
2023-05-01T11:47:02.498Z,2.05
2023-05-01T11:49:29.805Z,1.30
2023-05-01T11:51:58.884Z,2.30
2023-05-01T11:54:28.263Z,1.80
2023-05-01T11:57:02.638Z,1.20
2023-05-01T11:59:33.745Z,1.10
2023-05-01T12:02:03.588Z,0.82
2023-05-01T12:04:32.535Z,1.10
2023-05-01T12:06:59.902Z,1.17
2023-05-01T12:09:33.053Z,0.90
2023-05-01T12:12:04.624Z,1.05
2023-05-01T12:14:31.803Z,0.90
2023-05-01T12:16:58.977Z,0.90
2023-05-01T12:19:26.183Z,0.70
2023-05-01T12:22:14.695Z,1.30
2023-05-01T12:24:55.123Z,0.77
2023-05-01T12:27:22.670Z,0.90
2023-05-01T12:29:52.946Z,0.95
2023-05-01T12:32:19.978Z,0.90
2023-05-01T12:34:48.543Z,0.70
2023-05-01T12:37:15.910Z,1.02
2023-05-01T12:39:45.309Z,1.00
2023-05-01T12:42:16.390Z,0.88
2023-05-01T12:44:45.490Z,1.20
2023-05-01T12:47:13.100Z,1.40
2023-05-01T12:49:40.898Z,1.30
2023-05-01T12:52:09.359Z,1.10
2023-05-01T12:54:41.746Z,0.73
2023-05-01T12:57:14.832Z,0.65
2023-05-01T12:59:45.493Z,0.95
2023-05-01T13:02:18.239Z,1.13
2023-05-01T13:04:49.296Z,0.85
2023-05-01T13:07:19.603Z,1.15
2023-05-01T13:09:59.023Z,1.10
2023-05-01T13:12:27.761Z,0.80
2023-05-01T13:14:55.358Z,0.90
2023-05-01T13:17:28.025Z,0.95
2023-05-01T13:20:01.236Z,0.60
2023-05-01T13:22:41.843Z,0.82
2023-05-01T13:25:17.568Z,0.75
2023-05-01T13:27:55.206Z,1.10
2023-05-01T13:30:35.395Z,1.73
2023-05-01T13:33:05.528Z,1.20
2023-05-01T13:35:32.655Z,3.10
2023-05-01T13:37:59.688Z,0.75
2023-05-01T13:40:33.010Z,0.63
2023-05-01T13:42:59.960Z,0.63
2023-05-01T13:45:27.060Z,0.90
2023-05-01T13:47:58.358Z,0.80
2023-05-01T13:50:27.698Z,0.98
2023-05-01T13:52:54.663Z,0.90
2023-05-01T13:55:25.790Z,0.80
2023-05-01T13:57:53.267Z,0.95
2023-05-01T14:00:20.922Z,1.02
2023-05-01T14:02:49.693Z,0.80
2023-05-01T14:05:18.672Z,0.68
2023-05-01T14:07:58.541Z,0.68
2023-05-01T14:10:28.269Z,0.70
2023-05-01T14:12:59.362Z,0.85
2023-05-01T14:15:27.195Z,0.55
2023-05-01T14:17:54.297Z,0.60
2023-05-01T14:20:21.378Z,0.50
2023-05-01T14:22:51.803Z,0.73
2023-05-01T14:25:24.994Z,0.85
2023-05-01T14:27:56.632Z,0.90
2023-05-01T14:30:33.626Z,1.02
2023-05-01T14:33:05.190Z,0.80
2023-05-01T14:35:32.186Z,0.68
2023-05-01T14:38:11.755Z,0.65
2023-05-01T14:40:41.170Z,0.68
2023-05-01T14:43:10.579Z,1.08
2023-05-01T14:45:42.917Z,0.82
2023-05-01T14:48:16.325Z,1.20
2023-05-01T14:50:43.440Z,3.60
2023-05-01T14:53:11.981Z,4.47
2023-05-01T14:55:42.779Z,5.22
2023-05-01T14:58:10.526Z,4.40
2023-05-01T15:00:41.147Z,3.67
2023-05-01T15:03:08.454Z,2.95
2023-05-01T15:05:38.579Z,2.80
2023-05-01T15:08:18.147Z,3.28
2023-05-01T15:10:45.294Z,2.05
2023-05-01T15:13:12.428Z,1.67
2023-05-01T15:15:39.826Z,1.50
2023-05-01T15:18:07.719Z,1.33
2023-05-01T15:20:34.751Z,1.20
2023-05-01T15:25:29.204Z,1.27
2023-05-01T15:27:56.607Z,1.30
2023-05-01T15:30:23.568Z,1.40
2023-05-01T15:32:50.614Z,1.30
2023-05-01T15:35:18.067Z,1.55
2023-05-01T15:37:45.956Z,1.70
2023-05-01T15:43:07.464Z,1.00
2023-05-01T15:45:34.618Z,1.00
2023-05-01T15:48:01.996Z,0.80
2023-05-01T15:50:29.178Z,1.38
2023-05-01T15:52:57.333Z,1.10
2023-05-01T15:55:24.314Z,1.00
2023-05-01T15:57:51.607Z,1.05
2023-05-01T16:00:19.765Z,1.15
2023-05-01T16:02:46.788Z,1.27
2023-05-01T16:05:18.909Z,1.70
2023-05-01T16:07:46.392Z,1.05
2023-05-01T16:10:13.440Z,1.35
2023-05-01T16:12:40.460Z,1.25
2023-05-01T16:15:08.133Z,1.48
2023-05-01T16:17:45.186Z,1.20
2023-05-01T16:20:13.376Z,2.72
2023-05-01T16:22:43.973Z,1.92
2023-05-01T16:25:11.629Z,2.10
2023-05-01T16:27:44.680Z,1.80
2023-05-01T16:30:14.725Z,2.15
2023-05-01T16:32:42.609Z,2.65
2023-05-01T16:35:18.443Z,2.30
2023-05-01T16:37:46.081Z,3.10
2023-05-01T16:40:17.493Z,2.63
2023-05-01T16:42:54.260Z,3.38
2023-05-01T16:45:21.856Z,3.33
2023-05-01T16:47:48.977Z,3.40
2023-05-01T16:50:17.256Z,2.95
2023-05-01T16:52:44.362Z,3.78
2023-05-01T16:55:11.963Z,3.53
2023-05-01T16:57:38.923Z,3.65
2023-05-01T17:00:09.437Z,3.15
2023-05-01T17:02:37.142Z,4.78
2023-05-01T17:05:04.677Z,2.53
2023-05-01T17:07:31.862Z,3.28
2023-05-01T17:09:59.114Z,3.45
2023-05-01T17:12:27.906Z,2.83
2023-05-01T17:14:55.081Z,2.53
2023-05-01T17:17:22.119Z,2.58
2023-05-01T17:19:49.334Z,2.90
2023-05-01T17:22:16.330Z,2.75
2023-05-01T17:24:43.295Z,2.33
2023-05-01T17:27:10.235Z,1.85
2023-05-01T17:29:37.218Z,2.00
2023-05-01T17:32:04.661Z,2.13
2023-05-01T17:34:31.744Z,2.13
2023-05-01T17:36:58.666Z,1.95
2023-05-01T17:39:27.605Z,2.08
2023-05-01T17:41:54.821Z,2.30
2023-05-01T17:46:48.928Z,1.90
2023-05-01T17:49:16.348Z,1.85
2023-05-01T17:51:45.446Z,2.08
2023-05-01T17:54:12.628Z,2.10
2023-05-01T17:56:39.623Z,2.10
2023-05-01T17:59:07.337Z,2.33
2023-05-01T18:01:34.803Z,2.10
2023-05-01T18:04:02.018Z,2.00
2023-05-01T18:08:55.994Z,2.28
2023-05-01T18:11:22.913Z,3.40
2023-05-01T18:13:50.086Z,2.65
2023-05-01T18:18:45.785Z,3.47
2023-05-01T18:21:12.906Z,4.93
2023-05-01T18:23:40.041Z,3.78
2023-05-01T18:28:34.656Z,2.50
2023-05-01T18:31:01.874Z,1.58
2023-05-01T18:35:56.030Z,1.70
2023-05-01T18:41:08.612Z,2.90
2023-05-01T18:43:35.870Z,2.88
2023-05-01T18:48:29.732Z,3.90
2023-05-01T18:51:07.874Z,4.45
2023-05-01T18:53:37.450Z,3.42
2023-05-01T18:56:06.195Z,3.00
2023-05-01T18:58:33.166Z,2.42
2023-05-01T19:01:01.347Z,15.68
2023-05-01T19:03:28.595Z,13.75
2023-05-01T19:08:22.479Z,5.22
2023-05-01T19:10:49.454Z,5.97
2023-05-01T19:13:16.959Z,4.72
2023-05-01T19:15:44.068Z,5.18
2023-05-01T19:18:12.236Z,4.10
2023-05-01T19:20:39.298Z,4.25
2023-05-01T19:23:06.381Z,2.88
2023-05-01T19:25:34.408Z,3.50
2023-05-01T19:28:02.200Z,3.53
2023-05-01T19:30:29.498Z,4.38
2023-05-01T19:35:25.405Z,3.95
2023-05-01T19:37:59.300Z,4.03
2023-05-01T19:40:26.302Z,3.30
2023-05-01T19:42:53.946Z,4.00
2023-05-01T19:45:20.888Z,2.90
2023-05-01T19:47:48.051Z,3.35
2023-05-01T19:52:44.922Z,3.05
2023-05-01T19:55:13.286Z,2.97
2023-05-01T19:57:40.861Z,3.20
2023-05-01T20:00:08.678Z,3.22
2023-05-01T20:02:36.099Z,3.42
2023-05-01T20:05:03.129Z,3.45
2023-05-01T20:07:30.707Z,3.65
2023-05-01T20:09:57.911Z,3.50
2023-05-01T20:12:25.134Z,3.45
2023-05-01T20:14:52.276Z,3.83
2023-05-01T20:17:19.702Z,3.15
2023-05-01T20:19:46.725Z,3.35
2023-05-01T20:22:13.939Z,2.80
2023-05-01T20:27:08.328Z,2.53
2023-05-01T20:29:35.443Z,3.05
2023-05-01T20:32:02.597Z,2.78
2023-05-01T20:34:29.641Z,3.00
2023-05-01T20:36:56.685Z,3.30
2023-05-01T20:39:23.749Z,2.75
2023-05-01T20:41:50.810Z,3.33
2023-05-01T20:44:17.798Z,3.30
2023-05-01T20:46:45.193Z,3.60
2023-05-01T20:49:15.706Z,3.65
2023-05-01T20:51:44.408Z,4.00
2023-05-01T20:54:11.387Z,4.07
2023-05-01T20:56:38.985Z,3.72
2023-05-01T20:59:07.485Z,3.80
2023-05-01T21:01:34.519Z,3.42
2023-05-01T21:04:01.881Z,3.28
2023-05-01T21:06:32.687Z,3.45
2023-05-01T21:09:00.813Z,2.92
2023-05-01T21:11:28.102Z,3.90
2023-05-01T21:16:21.956Z,3.65
2023-05-01T21:18:49.032Z,3.95
2023-05-01T21:21:16.239Z,3.20
2023-05-01T21:23:48.206Z,3.80
2023-05-01T21:26:15.985Z,3.88
2023-05-01T21:28:43.752Z,3.53
2023-05-01T21:31:14.832Z,4.22
2023-05-01T21:33:45.820Z,4.22
2023-05-01T21:36:17.007Z,4.68
2023-05-01T21:38:43.991Z,4.70
2023-05-01T21:41:15.335Z,4.90
2023-05-01T21:43:42.639Z,5.22
2023-05-01T21:46:17.244Z,4.82
2023-05-01T21:48:46.411Z,5.43
2023-05-01T21:51:13.382Z,5.72
2023-05-01T21:53:41.113Z,5.07
2023-05-01T21:56:08.367Z,5.72
2023-05-01T21:58:35.628Z,5.50
2023-05-01T22:03:29.863Z,5.15
2023-05-01T22:05:57.796Z,5.82
2023-05-01T22:08:26.135Z,4.90
2023-05-01T22:10:53.358Z,4.50
2023-05-01T22:13:20.657Z,5.10
2023-05-01T22:15:48.928Z,4.88
2023-05-01T22:18:20.091Z,5.32
2023-05-01T22:20:47.174Z,4.57
2023-05-01T22:23:14.565Z,4.97
2023-05-01T22:25:41.598Z,4.05
2023-05-01T22:28:09.070Z,4.05
2023-05-01T22:30:37.385Z,4.85
2023-05-01T22:33:04.415Z,4.55
2023-05-01T22:35:31.767Z,4.20
2023-05-01T22:40:25.690Z,4.65
2023-05-01T22:42:52.567Z,3.63
2023-05-01T22:45:19.711Z,3.85
2023-05-01T22:47:46.659Z,4.10
2023-05-01T22:50:13.859Z,4.13
2023-05-01T22:52:40.784Z,4.32
2023-05-01T22:55:08.017Z,3.20
2023-05-01T22:57:34.895Z,2.50
2023-05-01T23:00:02.101Z,1.80
2023-05-01T23:02:29.377Z,2.47
2023-05-01T23:04:56.434Z,2.50
2023-05-01T23:07:23.396Z,2.42
2023-05-01T23:09:50.296Z,2.10
2023-05-01T23:12:20.606Z,2.30
2023-05-01T23:14:47.595Z,2.22
2023-05-01T23:17:15.187Z,2.55
2023-05-01T23:19:43.760Z,2.17
2023-05-01T23:22:13.156Z,1.80
2023-05-01T23:24:48.523Z,2.00
2023-05-01T23:27:19.891Z,1.92
2023-05-01T23:29:54.522Z,1.92
2023-05-01T23:32:30.565Z,2.00
2023-05-01T23:35:21.587Z,2.15
2023-05-01T23:37:49.425Z,2.72
2023-05-01T23:40:16.432Z,2.30
2023-05-01T23:42:43.913Z,2.17
2023-05-01T23:45:11.374Z,2.22
2023-05-01T23:47:39.049Z,2.28
2023-05-01T23:50:06.894Z,2.45
2023-05-01T23:52:34.004Z,2.45
2023-05-01T23:55:01.117Z,2.03
2023-05-01T23:57:28.288Z,2.70
2023-05-01T23:59:55.574Z,2.70
